createdAt,value
2022-09-12T00:00:51.125Z,10.68
2022-09-12T00:03:17.566Z,10.68
2022-09-12T00:05:45.735Z,10.23
2022-09-12T00:08:13.255Z,11.70
2022-09-12T00:10:41.156Z,10.70
2022-09-12T00:13:08.728Z,10.82
2022-09-12T00:15:43.753Z,10.37
2022-09-12T00:18:14.285Z,11.75
2022-09-12T00:20:45.966Z,10.63
2022-09-12T00:23:13.990Z,11.90
2022-09-12T00:25:44.651Z,12.07
2022-09-12T00:28:12.462Z,11.55
2022-09-12T00:30:48.882Z,11.85
2022-09-12T00:33:17.387Z,11.88
2022-09-12T00:38:12.291Z,11.55
2022-09-12T00:40:39.466Z,11.27
2022-09-12T00:43:06.159Z,11.23
2022-09-12T00:45:32.737Z,10.75
2022-09-12T00:48:03.499Z,11.20
2022-09-12T00:50:32.347Z,10.93
2022-09-12T00:53:04.215Z,11.07
2022-09-12T00:55:33.926Z,11.88
2022-09-12T00:58:08.468Z,11.20
2022-09-12T01:00:35.021Z,10.68
2022-09-12T01:03:07.773Z,11.57
2022-09-12T01:05:37.146Z,10.20
2022-09-12T01:08:05.115Z,11.15
2022-09-12T01:10:35.367Z,11.93
2022-09-12T01:13:04.969Z,11.18
2022-09-12T01:15:31.314Z,11.00
2022-09-12T01:18:19.274Z,11.60
2022-09-12T01:21:05.581Z,11.20
2022-09-12T01:24:07.885Z,10.73
2022-09-12T01:26:54.446Z,10.30
2022-09-12T01:29:56.647Z,10.82
2022-09-12T01:33:01.461Z,10.10
2022-09-12T01:35:42.989Z,10.70
2022-09-12T01:38:56.521Z,10.43
2022-09-12T01:41:37.621Z,10.73
2022-09-12T01:44:23.005Z,10.60
2022-09-12T01:47:05.652Z,11.60
2022-09-12T01:49:46.299Z,10.82
2022-09-12T01:52:57.160Z,11.40
2022-09-12T01:55:28.204Z,12.43
2022-09-12T01:58:09.638Z,12.65
2022-09-12T02:00:44.551Z,11.77
2022-09-12T02:03:16.590Z,11.45
2022-09-12T02:05:51.944Z,11.75
2022-09-12T02:08:23.087Z,12.82
2022-09-12T02:10:56.016Z,13.63
2022-09-12T02:13:31.319Z,13.63
2022-09-12T02:16:09.822Z,13.48
2022-09-12T02:18:40.253Z,14.50
2022-09-12T02:21:07.657Z,15.10
2022-09-12T02:23:38.135Z,13.88
2022-09-12T02:26:23.329Z,14.40
2022-09-12T02:28:50.246Z,12.80
2022-09-12T02:31:37.340Z,13.00
2022-09-12T02:34:14.951Z,14.23
2022-09-12T02:37:03.615Z,13.10
2022-09-12T02:39:29.967Z,12.32
2022-09-12T02:41:59.164Z,14.30
2022-09-12T02:44:27.992Z,14.10
2022-09-12T02:46:59.799Z,14.05
2022-09-12T02:49:26.140Z,14.90
2022-09-12T02:51:52.707Z,14.65
2022-09-12T02:54:20.959Z,14.57
2022-09-12T02:56:47.316Z,14.85
2022-09-12T02:59:18.582Z,13.55
2022-09-12T03:02:05.332Z,14.27
2022-09-12T03:05:01.603Z,14.40
2022-09-12T03:07:43.249Z,12.60
2022-09-12T03:10:25.436Z,12.90
2022-09-12T03:13:09.917Z,12.25
2022-09-12T03:16:00.956Z,12.93
2022-09-12T03:18:46.268Z,13.02
2022-09-12T03:21:26.928Z,12.20
2022-09-12T03:24:17.932Z,12.50
2022-09-12T03:26:59.494Z,11.50
2022-09-12T03:29:27.738Z,11.57
2022-09-12T03:31:57.725Z,11.85
2022-09-12T03:34:26.199Z,12.32
2022-09-12T03:39:24.224Z,12.75
2022-09-12T03:41:51.149Z,12.35
2022-09-12T03:44:18.201Z,12.88
2022-09-12T03:46:44.742Z,13.20
2022-09-12T03:49:11.379Z,14.48
2022-09-12T03:51:39.103Z,15.13
2022-09-12T03:54:05.662Z,14.97
2022-09-12T03:56:32.218Z,14.20
2022-09-12T03:58:58.533Z,14.60
2022-09-12T04:01:24.889Z,14.18
2022-09-12T04:03:52.468Z,14.30
2022-09-12T04:06:21.086Z,14.47
2022-09-12T04:11:18.224Z,14.43
2022-09-12T04:13:45.670Z,14.68
2022-09-12T04:16:14.024Z,15.40
2022-09-12T04:18:40.804Z,15.32
2022-09-12T04:21:10.607Z,13.27
2022-09-12T04:23:36.976Z,14.73
2022-09-12T04:26:06.424Z,12.98
2022-09-12T04:28:34.472Z,12.52
2022-09-12T04:31:06.822Z,13.57
2022-09-12T04:33:34.319Z,13.15
2022-09-12T04:36:14.331Z,12.32
2022-09-12T04:38:40.635Z,12.85
2022-09-12T04:41:14.452Z,12.57
2022-09-12T04:43:41.650Z,14.27
2022-09-12T04:46:10.136Z,13.48
2022-09-12T04:51:11.133Z,14.52
2022-09-12T04:53:37.952Z,13.68
2022-09-12T04:56:05.734Z,13.50
2022-09-12T04:58:33.226Z,14.45
2022-09-12T05:01:11.435Z,13.60
2022-09-12T05:03:39.508Z,13.63
2022-09-12T05:06:12.012Z,14.02
2022-09-12T05:08:38.467Z,14.50
2022-09-12T05:11:07.511Z,15.38
2022-09-12T05:13:34.673Z,15.40
2022-09-12T05:16:02.286Z,14.45
2022-09-12T05:18:30.844Z,15.40
2022-09-12T05:23:25.457Z,16.65
2022-09-12T05:25:53.569Z,16.85
2022-09-12T05:28:21.186Z,15.63
2022-09-12T05:30:47.846Z,16.97
2022-09-12T05:33:15.342Z,15.35
2022-09-12T05:35:41.695Z,15.02
2022-09-12T05:38:08.256Z,16.55
2022-09-12T05:40:34.571Z,17.00
2022-09-12T05:43:00.875Z,17.48
2022-09-12T05:45:27.271Z,17.20
2022-09-12T05:47:56.940Z,19.67
2022-09-12T05:50:23.295Z,19.08
2022-09-12T05:52:50.503Z,19.45
2022-09-12T05:55:17.088Z,17.02
2022-09-12T05:57:46.329Z,16.23
2022-09-12T06:00:14.871Z,17.00
2022-09-12T06:05:08.065Z,17.15
2022-09-12T06:07:35.743Z,19.15
2022-09-12T06:10:03.633Z,17.47
2022-09-12T06:12:30.196Z,19.45
2022-09-12T06:14:57.002Z,17.83
2022-09-12T06:17:23.341Z,19.90
2022-09-12T06:19:52.321Z,20.08
2022-09-12T06:22:19.188Z,18.33
2022-09-12T06:24:45.567Z,17.65
2022-09-12T06:27:11.866Z,19.02
2022-09-12T06:29:38.580Z,21.10
2022-09-12T06:32:05.178Z,19.00
2022-09-12T06:34:31.642Z,18.73
2022-09-12T06:36:57.979Z,19.27
2022-09-12T06:39:24.372Z,20.15
2022-09-12T06:41:52.324Z,20.08
2022-09-12T06:44:22.990Z,21.27
2022-09-12T06:46:49.809Z,21.42
2022-09-12T06:49:17.467Z,21.80
2022-09-12T06:51:44.382Z,21.17
2022-09-12T06:54:15.463Z,22.13
2022-09-12T06:56:41.845Z,22.10
2022-09-12T06:59:08.601Z,20.98
2022-09-12T07:01:34.952Z,22.95
2022-09-12T07:04:03.854Z,23.42
2022-09-12T07:06:35.734Z,22.85
2022-09-12T07:09:04.692Z,21.70
2022-09-12T07:11:37.163Z,23.35
2022-09-12T07:14:05.656Z,21.00
2022-09-12T07:19:01.086Z,26.70
2022-09-12T07:21:27.528Z,31.08
2022-09-12T07:24:00.290Z,32.28
2022-09-12T07:26:27.909Z,31.75
2022-09-12T07:29:07.964Z,26.17
2022-09-12T07:31:42.527Z,30.83
2022-09-12T07:34:08.832Z,30.15
2022-09-12T07:36:35.154Z,26.70
2022-09-12T07:39:02.233Z,28.73
2022-09-12T07:41:31.206Z,31.38
2022-09-12T07:43:59.265Z,31.15
2022-09-12T07:46:26.907Z,31.67
2022-09-12T07:48:54.528Z,31.52
2022-09-12T07:51:21.268Z,26.48
2022-09-12T07:53:49.129Z,28.40
2022-09-12T07:56:16.386Z,29.10
2022-09-12T07:58:43.770Z,28.80
2022-09-12T08:01:18.642Z,25.17
2022-09-12T08:03:47.932Z,30.02
2022-09-12T08:06:24.164Z,29.75
2022-09-12T08:08:52.223Z,29.60
2022-09-12T08:11:20.496Z,30.90
2022-09-12T08:13:50.572Z,28.83
2022-09-12T08:16:23.893Z,27.23
2022-09-12T08:18:50.713Z,23.00
2022-09-12T08:21:22.849Z,26.58
2022-09-12T08:24:01.408Z,29.60
2022-09-12T08:26:28.194Z,29.45
2022-09-12T08:28:54.757Z,28.83
2022-09-12T08:31:24.474Z,24.55
2022-09-12T08:33:51.655Z,22.30
2022-09-12T08:36:21.221Z,26.05
2022-09-12T08:38:49.995Z,26.77
2022-09-12T08:41:38.241Z,24.70
2022-09-12T08:46:57.213Z,24.05
2022-09-12T08:49:33.837Z,24.23
2022-09-12T08:52:07.759Z,24.70
2022-09-12T08:54:34.446Z,23.98
2022-09-12T08:57:05.631Z,23.73
2022-09-12T08:59:37.548Z,24.15
2022-09-12T09:02:14.140Z,19.25
2022-09-12T09:04:55.714Z,24.88
2022-09-12T09:08:00.478Z,21.30
2022-09-12T09:10:46.802Z,23.50
2022-09-12T09:14:05.030Z,22.70
2022-09-12T09:16:44.123Z,22.02
2022-09-12T09:19:21.571Z,22.52
2022-09-12T09:21:54.446Z,21.08
2022-09-12T09:24:37.951Z,22.23
2022-09-12T09:27:36.753Z,21.13
2022-09-12T09:29:58.242Z,21.67
2022-09-12T09:32:47.583Z,20.00
2022-09-12T09:35:29.272Z,16.77
2022-09-12T09:38:46.147Z,19.75
2022-09-12T09:41:38.075Z,19.30
2022-09-12T09:44:04.935Z,17.88
2022-09-12T09:46:32.503Z,17.23
2022-09-12T09:49:04.599Z,15.88
2022-09-12T09:51:37.700Z,16.35
2022-09-12T09:54:17.860Z,15.75
2022-09-12T09:56:44.978Z,14.32
2022-09-12T09:59:28.435Z,13.60
2022-09-12T10:01:57.584Z,13.27
2022-09-12T10:04:27.893Z,14.00
2022-09-12T10:06:57.668Z,13.65
2022-09-12T10:09:30.180Z,10.82
2022-09-12T10:11:57.261Z,10.55
2022-09-12T10:14:27.971Z,11.10
2022-09-12T10:16:54.429Z,11.38
2022-09-12T10:19:26.552Z,9.50
2022-09-12T10:21:55.931Z,8.77
2022-09-12T10:24:34.049Z,7.70
2022-09-12T10:27:15.878Z,7.72
2022-09-12T10:29:50.068Z,8.73
2022-09-12T10:32:31.100Z,8.30
2022-09-12T10:35:02.068Z,7.03
2022-09-12T10:37:34.762Z,9.88
2022-09-12T10:40:03.935Z,8.82
2022-09-12T10:42:47.627Z,7.30
2022-09-12T10:45:19.519Z,6.07
2022-09-12T10:47:46.437Z,6.25
2022-09-12T10:50:22.876Z,6.90
2022-09-12T10:52:49.742Z,6.53
2022-09-12T10:55:16.425Z,8.02
2022-09-12T10:57:51.782Z,7.50
2022-09-12T11:00:20.385Z,7.20
2022-09-12T11:03:16.399Z,9.45
2022-09-12T11:06:15.561Z,7.03
2022-09-12T11:08:55.482Z,8.70
2022-09-12T11:11:51.705Z,8.02
2022-09-12T11:14:34.074Z,5.20
2022-09-12T11:17:23.510Z,5.93
2022-09-12T11:20:02.588Z,6.18
2022-09-12T11:22:43.239Z,5.65
2022-09-12T11:25:23.702Z,5.38
2022-09-12T11:28:11.198Z,5.60
2022-09-12T11:31:02.984Z,4.85
2022-09-12T11:33:37.674Z,4.45
2022-09-12T11:36:27.335Z,5.10
2022-09-12T11:39:14.011Z,5.40
2022-09-12T11:41:48.371Z,6.03
2022-09-12T11:44:40.154Z,4.68
2022-09-12T11:47:13.944Z,6.00
2022-09-12T11:49:47.071Z,5.28
2022-09-12T11:52:25.053Z,5.47
2022-09-12T11:55:00.796Z,6.65
2022-09-12T11:57:55.759Z,6.82
2022-09-12T12:00:37.022Z,6.90
2022-09-12T12:03:14.561Z,5.47
2022-09-12T12:08:08.398Z,5.45
2022-09-12T12:10:41.730Z,4.85
2022-09-12T12:13:18.279Z,4.25
2022-09-12T12:15:57.602Z,4.40
2022-09-12T12:18:29.436Z,3.83
2022-09-12T12:21:15.841Z,4.30
2022-09-12T12:24:04.700Z,5.13
2022-09-12T12:26:57.557Z,4.70
2022-09-12T12:29:23.823Z,3.88
2022-09-12T12:31:59.379Z,4.97
2022-09-12T12:34:34.541Z,4.10
2022-09-12T12:37:29.785Z,5.55
2022-09-12T12:40:01.217Z,4.90
2022-09-12T12:42:34.161Z,5.55
2022-09-12T12:45:01.540Z,5.75
2022-09-12T12:47:39.288Z,6.20
2022-09-12T12:50:20.924Z,5.55
2022-09-12T12:52:55.031Z,5.03
2022-09-12T12:55:26.684Z,5.07
2022-09-12T12:57:55.456Z,5.88
2022-09-12T13:00:24.528Z,4.22
2022-09-12T13:03:06.092Z,3.90
2022-09-12T13:05:42.697Z,4.68
2022-09-12T13:08:26.410Z,4.35
2022-09-12T13:11:01.946Z,3.72
2022-09-12T13:13:34.146Z,4.13
2022-09-12T13:16:00.572Z,4.40
2022-09-12T13:18:40.919Z,4.05
2022-09-12T13:21:16.256Z,4.90
2022-09-12T13:23:44.144Z,4.20
2022-09-12T13:26:34.315Z,4.68
2022-09-12T13:29:21.859Z,3.85
2022-09-12T13:31:52.847Z,4.50
2022-09-12T13:34:24.218Z,4.03
2022-09-12T13:37:24.410Z,3.78
2022-09-12T13:40:05.425Z,4.00
2022-09-12T13:42:42.657Z,3.55
2022-09-12T13:45:12.456Z,4.25
2022-09-12T13:48:06.574Z,3.70
2022-09-12T13:50:52.161Z,4.50
2022-09-12T13:53:22.207Z,3.80
2022-09-12T13:55:53.466Z,4.22
2022-09-12T13:58:23.390Z,3.72
2022-09-12T14:01:12.973Z,3.67
2022-09-12T14:04:01.205Z,3.55
2022-09-12T14:06:28.510Z,3.10
2022-09-12T14:09:01.266Z,3.38
2022-09-12T14:11:29.764Z,4.20
2022-09-12T14:13:57.310Z,3.35
2022-09-12T14:16:27.235Z,4.10
2022-09-12T14:18:54.208Z,3.38
2022-09-12T14:21:33.861Z,3.63
2022-09-12T14:24:01.291Z,3.28
2022-09-12T14:26:32.355Z,3.50
2022-09-12T14:29:00.269Z,3.10
2022-09-12T14:31:32.212Z,3.38
2022-09-12T14:34:24.942Z,3.35
2022-09-12T14:36:56.101Z,2.80
2022-09-12T14:39:37.622Z,3.65
2022-09-12T14:42:07.139Z,3.25
2022-09-12T14:44:34.996Z,4.50
2022-09-12T14:47:13.224Z,3.58
2022-09-12T14:49:40.071Z,3.47
2022-09-12T14:52:21.411Z,3.90
2022-09-12T14:55:04.012Z,3.08
2022-09-12T14:57:33.543Z,3.13
2022-09-12T15:00:30.067Z,2.97
2022-09-12T15:03:23.667Z,3.50
2022-09-12T15:05:50.661Z,3.30
2022-09-12T15:08:17.129Z,3.47
2022-09-12T15:10:43.540Z,3.33
2022-09-12T15:13:09.803Z,3.40
2022-09-12T15:15:38.358Z,3.60
2022-09-12T15:18:06.753Z,3.15
2022-09-12T15:20:36.015Z,2.92
2022-09-12T15:23:02.416Z,3.45
2022-09-12T15:25:28.823Z,3.53
2022-09-12T15:27:55.996Z,3.50
2022-09-12T15:30:22.362Z,3.72
2022-09-12T15:32:48.882Z,3.30
2022-09-12T15:35:18.130Z,3.88
2022-09-12T15:37:45.087Z,3.50
2022-09-12T15:40:13.223Z,4.00
2022-09-12T15:42:40.314Z,3.72
2022-09-12T15:45:22.414Z,3.80
2022-09-12T15:47:48.768Z,3.80
2022-09-12T15:50:15.141Z,3.90
2022-09-12T15:52:41.811Z,3.67
2022-09-12T15:55:20.238Z,3.40
2022-09-12T15:57:46.747Z,3.42
2022-09-12T16:00:14.545Z,3.67
2022-09-12T16:05:14.943Z,4.00
2022-09-12T16:07:41.975Z,3.92
2022-09-12T16:10:13.427Z,4.77
2022-09-12T16:12:39.994Z,5.00
2022-09-12T16:15:06.599Z,4.05
2022-09-12T16:17:32.912Z,3.30
2022-09-12T16:19:59.322Z,4.18
2022-09-12T16:22:25.723Z,3.67
2022-09-12T16:24:52.059Z,3.70
2022-09-12T16:27:19.629Z,3.90
2022-09-12T16:29:46.207Z,4.13
2022-09-12T16:32:12.590Z,3.92
2022-09-12T16:34:38.994Z,4.35
2022-09-12T16:37:05.635Z,3.75
2022-09-12T16:39:31.939Z,3.92
2022-09-12T16:41:58.284Z,3.90
2022-09-12T16:44:24.599Z,3.90
2022-09-12T16:46:51.067Z,4.22
2022-09-12T16:49:17.467Z,4.03
2022-09-12T16:51:47.359Z,4.10
2022-09-12T16:54:15.566Z,3.63
2022-09-12T16:56:42.064Z,3.38
2022-09-12T16:59:11.996Z,3.50
2022-09-12T17:01:39.223Z,3.67
2022-09-12T17:04:06.642Z,3.78
2022-09-12T17:06:33.843Z,3.90
2022-09-12T17:09:01.558Z,3.65
2022-09-12T17:11:31.654Z,3.17
2022-09-12T17:14:07.420Z,3.50
2022-09-12T17:16:39.608Z,3.63
2022-09-12T17:19:06.920Z,3.78
2022-09-12T17:21:33.665Z,3.60
2022-09-12T17:24:00.026Z,3.53
2022-09-12T17:26:26.751Z,3.03
2022-09-12T17:28:53.310Z,3.63
2022-09-12T17:31:20.040Z,3.60
2022-09-12T17:33:46.661Z,3.92
2022-09-12T17:36:16.236Z,3.83
2022-09-12T17:38:45.144Z,4.18
2022-09-12T17:41:17.522Z,3.60
2022-09-12T17:43:53.088Z,3.72
2022-09-12T17:46:20.379Z,3.65
2022-09-12T17:48:54.538Z,3.45
2022-09-12T17:51:22.912Z,3.47
2022-09-12T17:53:49.362Z,3.50
2022-09-12T17:56:16.064Z,4.00
2022-09-12T17:58:42.561Z,3.50
2022-09-12T18:01:34.463Z,3.45
2022-09-12T18:04:01.294Z,3.83
2022-09-12T18:06:32.277Z,3.10
2022-09-12T18:09:03.846Z,3.67
2022-09-12T18:11:33.793Z,3.45
2022-09-12T18:14:01.055Z,3.08
2022-09-12T18:16:31.437Z,3.72
2022-09-12T18:19:01.422Z,3.42
2022-09-12T18:21:29.185Z,3.50
2022-09-12T18:23:59.213Z,3.50
2022-09-12T18:26:27.745Z,3.70
2022-09-12T18:28:54.538Z,3.83
2022-09-12T18:31:24.063Z,3.50
2022-09-12T18:33:50.963Z,3.78
2022-09-12T18:36:18.444Z,3.75
2022-09-12T18:38:45.305Z,3.80
2022-09-12T18:41:14.558Z,3.53
2022-09-12T18:43:41.251Z,3.50
2022-09-12T18:46:10.681Z,3.85
2022-09-12T18:48:37.285Z,3.92
2022-09-12T18:51:07.910Z,4.00
2022-09-12T18:53:36.983Z,3.97
2022-09-12T18:56:08.538Z,4.35
2022-09-12T18:58:40.591Z,4.03
2022-09-12T19:01:13.160Z,3.72
2022-09-12T19:03:41.377Z,3.97
2022-09-12T19:08:38.825Z,4.18
2022-09-12T19:11:06.349Z,4.20
2022-09-12T19:13:39.416Z,4.25
2022-09-12T19:16:11.112Z,4.25
2022-09-12T19:18:38.785Z,4.43
2022-09-12T19:21:05.907Z,4.40
2022-09-12T19:23:34.003Z,4.20
2022-09-12T19:26:03.479Z,3.95
2022-09-12T19:28:30.750Z,4.30
2022-09-12T19:30:57.736Z,4.10
2022-09-12T19:33:24.366Z,4.22
2022-09-12T19:35:50.887Z,4.68
2022-09-12T19:38:17.968Z,4.55
2022-09-12T19:40:44.861Z,4.38
2022-09-12T19:43:11.634Z,4.72
2022-09-12T19:45:38.046Z,4.75
2022-09-12T19:48:04.370Z,4.35
2022-09-12T19:50:33.535Z,4.50
2022-09-12T19:52:59.983Z,4.53
2022-09-12T19:55:26.376Z,4.82
2022-09-12T19:57:53.765Z,5.30
2022-09-12T20:00:20.167Z,5.18
2022-09-12T20:02:50.414Z,5.00
2022-09-12T20:05:16.815Z,4.63
2022-09-12T20:07:43.401Z,4.68
2022-09-12T20:10:09.844Z,4.85
2022-09-12T20:12:36.142Z,4.75
2022-09-12T20:15:02.931Z,5.18
2022-09-12T20:17:29.318Z,5.53
2022-09-12T20:19:55.711Z,5.45
2022-09-12T20:22:22.074Z,4.65
2022-09-12T20:24:49.123Z,5.57
2022-09-12T20:27:15.436Z,5.32
2022-09-12T20:29:41.831Z,4.88
2022-09-12T20:32:08.811Z,5.40
2022-09-12T20:34:35.115Z,4.70
2022-09-12T20:37:01.754Z,5.28
2022-09-12T20:39:28.182Z,4.93
2022-09-12T20:41:54.523Z,5.50
2022-09-12T20:44:21.012Z,5.50
2022-09-12T20:46:47.358Z,5.53
2022-09-12T20:49:13.715Z,5.60
2022-09-12T20:51:40.074Z,5.15
2022-09-12T20:54:07.275Z,5.13
2022-09-12T20:56:36.353Z,6.53
2022-09-12T20:59:04.134Z,6.78
2022-09-12T21:01:31.601Z,5.57
2022-09-12T21:04:00.828Z,5.70
2022-09-12T21:06:28.140Z,5.70
2022-09-12T21:08:58.221Z,5.67
2022-09-12T21:11:24.529Z,5.85
2022-09-12T21:13:51.919Z,5.50
2022-09-12T21:16:20.353Z,6.30
2022-09-12T21:18:52.046Z,8.00
2022-09-12T21:21:18.380Z,9.38
2022-09-12T21:23:44.747Z,7.68
2022-09-12T21:26:12.128Z,6.45
2022-09-12T21:28:38.681Z,6.57
2022-09-12T21:31:05.601Z,5.93
2022-09-12T21:33:32.123Z,6.63
2022-09-12T21:36:05.704Z,6.03
2022-09-12T21:38:32.963Z,5.93
2022-09-12T21:41:11.117Z,6.65
2022-09-12T21:46:05.428Z,7.22
2022-09-12T21:48:32.391Z,6.70
2022-09-12T21:50:59.564Z,7.45
2022-09-12T21:53:25.952Z,6.22
2022-09-12T21:55:52.260Z,7.03
2022-09-12T21:58:19.414Z,6.28
2022-09-12T22:00:45.880Z,6.82
2022-09-12T22:03:12.600Z,6.88
2022-09-12T22:05:42.623Z,6.47
2022-09-12T22:08:10.523Z,7.10
2022-09-12T22:10:38.358Z,6.97
2022-09-12T22:13:05.401Z,6.53
2022-09-12T22:15:40.901Z,6.50
2022-09-12T22:18:07.688Z,6.85
2022-09-12T22:20:33.987Z,6.60
2022-09-12T22:23:23.833Z,6.97
2022-09-12T22:25:54.167Z,7.40
2022-09-12T22:28:21.376Z,6.60
2022-09-12T22:30:48.495Z,6.85
2022-09-12T22:33:14.848Z,6.97
2022-09-12T22:35:42.352Z,6.80
2022-09-12T22:38:08.995Z,7.15
2022-09-12T22:40:35.350Z,7.05
2022-09-12T22:43:01.787Z,7.10
2022-09-12T22:45:28.405Z,6.63
2022-09-12T22:47:56.384Z,6.55
2022-09-12T22:50:25.609Z,6.43
2022-09-12T22:52:52.651Z,6.78
2022-09-12T22:55:19.028Z,6.35
2022-09-12T22:57:45.412Z,6.57
2022-09-12T23:00:12.316Z,6.65
2022-09-12T23:02:38.652Z,7.00
2022-09-12T23:05:06.278Z,6.22
2022-09-12T23:07:33.050Z,6.82
2022-09-12T23:09:59.405Z,6.63
2022-09-12T23:12:25.893Z,6.95
2022-09-12T23:14:52.231Z,6.80
2022-09-12T23:17:18.601Z,7.25
2022-09-12T23:19:45.384Z,6.45
2022-09-12T23:22:11.713Z,7.20
2022-09-12T23:24:38.278Z,7.47
2022-09-12T23:27:05.168Z,7.28
2022-09-12T23:29:34.291Z,8.05
2022-09-12T23:32:01.782Z,7.75
2022-09-12T23:34:28.184Z,7.05
2022-09-12T23:36:56.327Z,7.53
2022-09-12T23:39:25.721Z,7.43
2022-09-12T23:41:52.261Z,7.30
2022-09-12T23:44:18.631Z,7.30
2022-09-12T23:46:44.956Z,7.47
2022-09-12T23:49:11.353Z,7.82
2022-09-12T23:51:37.673Z,7.70
2022-09-12T23:54:04.335Z,7.50
2022-09-12T23:56:30.992Z,8.15
2022-09-12T23:58:57.331Z,8.05
